createdAt,value
2023-04-19T00:00:51.353Z,899.00
2023-04-19T00:01:51.497Z,924.00
2023-04-19T00:02:51.667Z,914.00
2023-04-19T00:03:51.778Z,914.00
2023-04-19T00:04:51.698Z,902.00
2023-04-19T00:05:51.748Z,900.00
2023-04-19T00:06:51.769Z,899.00
2023-04-19T00:07:51.845Z,900.00
2023-04-19T00:08:51.893Z,898.00
2023-04-19T00:09:51.979Z,908.00
2023-04-19T00:10:52.028Z,892.00
2023-04-19T00:11:52.098Z,894.00
2023-04-19T00:12:52.147Z,894.00
2023-04-19T00:13:52.233Z,881.00
2023-04-19T00:14:52.318Z,878.00
2023-04-19T00:15:52.335Z,874.00
2023-04-19T00:16:52.425Z,886.00
2023-04-19T00:17:52.530Z,878.00
2023-04-19T00:18:52.549Z,883.00
2023-04-19T00:19:52.635Z,893.00
2023-04-19T00:20:52.672Z,874.00
2023-04-19T00:21:52.717Z,874.00
2023-04-19T00:22:52.796Z,875.00
2023-04-19T00:23:52.852Z,884.00
2023-04-19T00:24:52.903Z,862.00
2023-04-19T00:25:52.973Z,874.00
2023-04-19T00:26:53.080Z,877.00
2023-04-19T00:27:53.125Z,870.00
2023-04-19T00:28:53.186Z,869.00
2023-04-19T00:29:53.218Z,880.00
2023-04-19T00:30:53.311Z,875.00
2023-04-19T00:31:53.351Z,864.00
2023-04-19T00:32:53.476Z,872.00
2023-04-19T00:33:53.470Z,868.00
2023-04-19T00:34:53.607Z,863.00
2023-04-19T00:35:53.688Z,852.00
2023-04-19T00:36:53.695Z,857.00
2023-04-19T00:37:53.752Z,866.00
2023-04-19T00:38:53.776Z,857.00
2023-04-19T00:39:53.878Z,852.00
2023-04-19T00:40:53.918Z,844.00
2023-04-19T00:41:53.979Z,847.00
2023-04-19T00:42:54.060Z,832.00
2023-04-19T00:43:54.108Z,856.00
2023-04-19T00:44:54.158Z,848.00
2023-04-19T00:45:54.234Z,852.00
2023-04-19T00:46:54.292Z,854.00
2023-04-19T00:47:54.378Z,835.00
2023-04-19T00:48:54.386Z,844.00
2023-04-19T00:49:54.448Z,835.00
2023-04-19T00:50:54.506Z,844.00
2023-04-19T00:51:54.602Z,837.00
2023-04-19T00:52:54.622Z,840.00
2023-04-19T00:53:54.707Z,850.00
2023-04-19T00:54:54.773Z,830.00
2023-04-19T00:55:54.779Z,842.00
2023-04-19T00:56:54.867Z,843.00
2023-04-19T00:57:54.964Z,833.00
2023-04-19T00:58:54.993Z,842.00
2023-04-19T00:59:55.076Z,827.00
2023-04-19T01:00:55.093Z,832.00
2023-04-19T01:01:55.235Z,834.00
2023-04-19T01:02:55.390Z,833.00
2023-04-19T01:03:55.372Z,833.00
2023-04-19T01:04:55.367Z,833.00
2023-04-19T01:05:55.390Z,828.00
2023-04-19T01:06:55.495Z,824.00
2023-04-19T01:07:55.565Z,815.00
2023-04-19T01:08:55.620Z,814.00
2023-04-19T01:09:55.681Z,809.00
2023-04-19T01:10:55.717Z,819.00
2023-04-19T01:11:55.784Z,815.00
2023-04-19T01:12:55.892Z,818.00
2023-04-19T01:13:55.948Z,811.00
2023-04-19T01:14:55.980Z,815.00
2023-04-19T01:15:56.125Z,794.00
2023-04-19T01:16:56.118Z,808.00
2023-04-19T01:17:56.213Z,809.00
2023-04-19T01:18:56.302Z,794.00
2023-04-19T01:19:56.414Z,806.00
2023-04-19T01:20:56.363Z,784.00
2023-04-19T01:21:56.435Z,804.00
2023-04-19T01:22:56.483Z,793.00
2023-04-19T01:23:56.540Z,797.00
2023-04-19T01:24:56.586Z,798.00
2023-04-19T01:25:56.652Z,784.00
2023-04-19T01:26:56.758Z,786.00
2023-04-19T01:27:56.774Z,794.00
2023-04-19T01:28:56.853Z,791.00
2023-04-19T01:29:56.930Z,780.00
2023-04-19T01:30:57.014Z,790.00
2023-04-19T01:31:57.074Z,786.00
2023-04-19T01:32:57.132Z,782.00
2023-04-19T01:33:57.199Z,791.00
2023-04-19T01:34:57.292Z,788.00
2023-04-19T01:35:57.315Z,777.00
2023-04-19T01:36:57.350Z,790.00
2023-04-19T01:37:57.414Z,779.00
2023-04-19T01:38:57.461Z,770.00
2023-04-19T01:39:57.528Z,766.00
2023-04-19T01:40:57.598Z,776.00
2023-04-19T01:41:57.671Z,786.00
2023-04-19T01:42:57.761Z,785.00
2023-04-19T01:43:57.782Z,778.00
2023-04-19T01:44:57.946Z,777.00
2023-04-19T01:45:57.914Z,770.00
2023-04-19T01:46:58.035Z,778.00
2023-04-19T01:47:58.111Z,768.00
2023-04-19T01:48:58.107Z,760.00
2023-04-19T01:49:58.148Z,765.00
2023-04-19T01:50:58.219Z,762.00
2023-04-19T01:51:58.290Z,765.00
2023-04-19T01:52:58.349Z,752.00
2023-04-19T01:53:58.555Z,763.00
2023-04-19T01:54:58.457Z,768.00
2023-04-19T01:55:58.569Z,759.00
2023-04-19T01:56:58.581Z,768.00
2023-04-19T01:57:58.648Z,756.00
2023-04-19T01:58:58.749Z,762.00
2023-04-19T01:59:58.768Z,744.00
2023-04-19T02:00:58.862Z,765.00
2023-04-19T02:01:59.007Z,763.00
2023-04-19T02:02:59.116Z,743.00
2023-04-19T02:03:59.116Z,758.00
2023-04-19T02:04:59.099Z,758.00
2023-04-19T02:05:59.130Z,742.00
2023-04-19T02:06:59.220Z,752.00
2023-04-19T02:07:59.279Z,765.00
2023-04-19T02:08:59.433Z,753.00
2023-04-19T02:09:59.443Z,758.00
2023-04-19T02:10:59.480Z,752.00
2023-04-19T02:11:59.496Z,734.00
2023-04-19T02:12:59.606Z,747.00
2023-04-19T02:13:59.709Z,757.00
2023-04-19T02:14:59.711Z,739.00
2023-04-19T02:15:59.841Z,752.00
2023-04-19T02:16:59.834Z,746.00
2023-04-19T02:17:59.998Z,756.00
2023-04-19T02:18:59.955Z,747.00
2023-04-19T02:20:00.068Z,726.00
2023-04-19T02:21:00.087Z,735.00
2023-04-19T02:22:00.134Z,721.00
2023-04-19T02:23:00.193Z,715.00
2023-04-19T02:24:00.361Z,755.00
2023-04-19T02:25:00.326Z,738.00
2023-04-19T02:26:00.384Z,726.00
2023-04-19T02:27:00.497Z,730.00
2023-04-19T02:28:00.518Z,719.00
2023-04-19T02:29:00.634Z,730.00
2023-04-19T02:30:00.657Z,737.00
2023-04-19T02:31:00.701Z,719.00
2023-04-19T02:32:00.863Z,717.00
2023-04-19T02:33:00.920Z,731.00
2023-04-19T02:34:00.987Z,735.00
2023-04-19T02:35:00.971Z,732.00
2023-04-19T02:36:01.119Z,721.00
2023-04-19T02:37:01.111Z,720.00
2023-04-19T02:38:01.160Z,727.00
2023-04-19T02:39:01.221Z,706.00
2023-04-19T02:40:01.331Z,715.00
2023-04-19T02:41:01.378Z,726.00
2023-04-19T02:42:01.461Z,710.00
2023-04-19T02:43:01.455Z,707.00
2023-04-19T02:44:01.697Z,722.00
2023-04-19T02:45:01.643Z,721.00
2023-04-19T02:46:01.673Z,707.00
2023-04-19T02:47:01.762Z,718.00
2023-04-19T02:48:01.782Z,718.00
2023-04-19T02:49:01.838Z,693.00
2023-04-19T02:50:01.901Z,715.00
2023-04-19T02:51:01.968Z,709.00
2023-04-19T02:52:02.049Z,711.00
2023-04-19T02:53:02.094Z,703.00
2023-04-19T02:54:02.148Z,713.00
2023-04-19T02:55:02.271Z,707.00
2023-04-19T02:56:02.378Z,708.00
2023-04-19T02:57:02.382Z,707.00
2023-04-19T02:58:02.473Z,710.00
2023-04-19T02:59:02.543Z,712.00
2023-04-19T03:00:02.538Z,701.00
2023-04-19T03:01:02.677Z,708.00
2023-04-19T03:02:02.743Z,691.00
2023-04-19T03:03:02.986Z,698.00
2023-04-19T03:04:02.828Z,693.00
2023-04-19T03:05:02.896Z,701.00
2023-04-19T03:06:02.923Z,696.00
2023-04-19T03:07:03.004Z,701.00
2023-04-19T03:08:03.077Z,686.00
2023-04-19T03:09:03.115Z,678.00
2023-04-19T03:10:03.241Z,689.00
2023-04-19T03:11:03.193Z,682.00
2023-04-19T03:12:03.261Z,685.00
2023-04-19T03:13:03.419Z,698.00
2023-04-19T03:14:03.435Z,668.00
2023-04-19T03:15:03.511Z,664.00
2023-04-19T03:16:03.622Z,665.00
2023-04-19T03:17:03.577Z,672.00
2023-04-19T03:18:03.674Z,680.00
2023-04-19T03:19:03.725Z,684.00
2023-04-19T03:20:03.795Z,674.00
2023-04-19T03:21:03.845Z,673.00
2023-04-19T03:22:03.873Z,666.00
2023-04-19T03:23:03.975Z,676.00
2023-04-19T03:24:04.050Z,664.00
2023-04-19T03:25:04.099Z,665.00
2023-04-19T03:26:04.173Z,670.00
2023-04-19T03:27:04.205Z,667.00
2023-04-19T03:28:04.319Z,670.00
2023-04-19T03:29:04.360Z,664.00
2023-04-19T03:30:04.442Z,669.00
2023-04-19T03:31:04.498Z,673.00
2023-04-19T03:32:04.509Z,660.00
2023-04-19T03:33:04.626Z,663.00
2023-04-19T03:34:04.646Z,667.00
2023-04-19T03:35:04.729Z,665.00
2023-04-19T03:36:04.791Z,672.00
2023-04-19T03:37:04.890Z,664.00
2023-04-19T03:38:04.895Z,673.00
2023-04-19T03:39:04.929Z,658.00
2023-04-19T03:40:05.048Z,655.00
2023-04-19T03:41:05.060Z,669.00
2023-04-19T03:42:05.113Z,657.00
2023-04-19T03:43:05.235Z,666.00
2023-04-19T03:44:05.284Z,665.00
2023-04-19T03:45:05.320Z,658.00
2023-04-19T03:46:05.436Z,664.00
2023-04-19T03:47:05.506Z,661.00
2023-04-19T03:48:05.500Z,659.00
2023-04-19T03:49:05.580Z,665.00
2023-04-19T03:50:05.646Z,661.00
2023-04-19T03:51:05.730Z,658.00
2023-04-19T03:52:05.837Z,657.00
2023-04-19T03:53:05.818Z,660.00
2023-04-19T03:54:05.962Z,655.00
2023-04-19T03:55:05.939Z,658.00
2023-04-19T03:56:06.084Z,662.00
2023-04-19T03:57:06.049Z,665.00
2023-04-19T03:58:06.136Z,655.00
2023-04-19T03:59:06.197Z,651.00
2023-04-19T04:00:06.291Z,658.00
2023-04-19T04:01:06.388Z,657.00
2023-04-19T04:02:06.510Z,659.00
2023-04-19T04:03:06.576Z,656.00
2023-04-19T04:04:06.773Z,661.00
2023-04-19T04:05:06.604Z,656.00
2023-04-19T04:06:06.608Z,656.00
2023-04-19T04:07:06.746Z,657.00
2023-04-19T04:08:06.758Z,658.00
2023-04-19T04:09:06.868Z,658.00
2023-04-19T04:10:06.878Z,655.00
2023-04-19T04:11:06.993Z,659.00
2023-04-19T04:12:07.086Z,654.00
2023-04-19T04:13:07.062Z,650.00
2023-04-19T04:14:07.100Z,652.00
2023-04-19T04:15:07.182Z,651.00
2023-04-19T04:16:07.222Z,649.00
2023-04-19T04:17:07.283Z,657.00
2023-04-19T04:18:09.021Z,652.00
2023-04-19T04:19:07.565Z,647.00
2023-04-19T04:20:07.501Z,647.00
2023-04-19T04:21:07.581Z,648.00
2023-04-19T04:22:07.672Z,646.00
2023-04-19T04:23:07.756Z,653.00
2023-04-19T04:24:07.804Z,647.00
2023-04-19T04:25:07.836Z,650.00
2023-04-19T04:26:07.899Z,652.00
2023-04-19T04:27:07.933Z,644.00
2023-04-19T04:28:08.135Z,649.00
2023-04-19T04:29:08.130Z,647.00
2023-04-19T04:30:08.117Z,650.00
2023-04-19T04:31:08.174Z,653.00
2023-04-19T04:32:08.316Z,649.00
2023-04-19T04:33:08.317Z,647.00
2023-04-19T04:34:08.488Z,650.00
2023-04-19T04:35:08.495Z,642.00
2023-04-19T04:36:09.813Z,643.00
2023-04-19T04:37:08.561Z,644.00
2023-04-19T04:38:21.478Z,645.00
2023-04-19T04:39:09.641Z,645.00
2023-04-19T04:40:08.581Z,646.00
2023-04-19T04:41:08.600Z,644.00
2023-04-19T04:42:08.627Z,646.00
2023-04-19T04:43:08.656Z,646.00
2023-04-19T04:44:12.505Z,641.00
2023-04-19T04:45:08.602Z,642.00
2023-04-19T04:46:08.642Z,642.00
2023-04-19T04:47:08.548Z,644.00
2023-04-19T04:48:08.557Z,645.00
2023-04-19T04:49:08.536Z,646.00
2023-04-19T04:50:08.550Z,647.00
2023-04-19T04:51:08.623Z,640.00
2023-04-19T04:52:08.557Z,646.00
2023-04-19T04:53:08.739Z,647.00
2023-04-19T04:54:08.535Z,646.00
2023-04-19T04:55:08.662Z,643.00
2023-04-19T04:56:08.564Z,636.00
2023-04-19T04:57:08.495Z,646.00
2023-04-19T04:58:08.549Z,644.00
2023-04-19T04:59:08.490Z,642.00
2023-04-19T05:00:08.709Z,643.00
2023-04-19T05:01:08.616Z,637.00
2023-04-19T05:02:08.742Z,635.00
2023-04-19T05:03:08.879Z,643.00
2023-04-19T05:04:08.860Z,642.00
2023-04-19T05:05:08.853Z,638.00
2023-04-19T05:06:08.903Z,638.00
2023-04-19T05:07:09.054Z,643.00
2023-04-19T05:08:09.013Z,636.00
2023-04-19T05:09:09.136Z,635.00
2023-04-19T05:10:09.313Z,635.00
2023-04-19T05:11:09.241Z,636.00
2023-04-19T05:12:09.243Z,639.00
2023-04-19T05:13:09.343Z,636.00
2023-04-19T05:14:09.378Z,641.00
2023-04-19T05:15:09.482Z,637.00
2023-04-19T05:16:09.558Z,640.00
2023-04-19T05:17:09.598Z,641.00
2023-04-19T05:18:09.638Z,638.00
2023-04-19T05:19:09.698Z,626.00
2023-04-19T05:20:09.749Z,633.00
2023-04-19T05:21:09.773Z,639.00
2023-04-19T05:22:09.868Z,630.00
2023-04-19T05:23:09.985Z,632.00
2023-04-19T05:24:09.981Z,636.00
2023-04-19T05:25:10.059Z,631.00
2023-04-19T05:26:10.054Z,635.00
2023-04-19T05:27:10.152Z,631.00
2023-04-19T05:28:10.188Z,632.00
2023-04-19T05:29:10.291Z,634.00
2023-04-19T05:30:10.320Z,627.00
2023-04-19T05:31:10.377Z,633.00
2023-04-19T05:32:10.602Z,633.00
2023-04-19T05:33:10.562Z,633.00
2023-04-19T05:34:10.533Z,636.00
2023-04-19T05:35:10.641Z,626.00
2023-04-19T05:36:10.646Z,627.00
2023-04-19T05:37:10.686Z,631.00
2023-04-19T05:38:10.755Z,634.00
2023-04-19T05:39:10.871Z,629.00
2023-04-19T05:40:10.842Z,634.00
2023-04-19T05:41:10.927Z,634.00
2023-04-19T05:42:10.919Z,635.00
2023-04-19T05:43:10.972Z,632.00
2023-04-19T05:44:11.033Z,633.00
2023-04-19T05:45:11.112Z,629.00
2023-04-19T05:46:11.167Z,632.00
2023-04-19T05:47:11.231Z,636.00
2023-04-19T05:48:11.270Z,636.00
2023-04-19T05:49:11.351Z,637.00
2023-04-19T05:50:11.497Z,634.00
2023-04-19T05:51:11.399Z,632.00
2023-04-19T05:52:11.516Z,630.00
2023-04-19T05:53:11.523Z,637.00
2023-04-19T05:54:11.562Z,662.00
2023-04-19T05:55:11.587Z,731.00
2023-04-19T05:56:11.621Z,804.00
2023-04-19T05:57:11.730Z,852.00
2023-04-19T05:58:11.779Z,935.00
2023-04-19T05:59:11.821Z,1040.00
2023-04-19T06:00:11.917Z,1178.00
2023-04-19T06:01:11.941Z,1181.00
2023-04-19T06:02:12.009Z,1219.00
2023-04-19T06:03:12.130Z,1267.00
2023-04-19T06:04:12.106Z,1319.00
2023-04-19T06:05:12.330Z,1383.00
2023-04-19T06:06:12.080Z,1415.00
2023-04-19T06:07:22.391Z,1484.00
2023-04-19T06:08:13.017Z,1487.00
2023-04-19T06:09:12.066Z,1498.00
2023-04-19T06:10:12.022Z,1528.00
2023-04-19T06:11:23.282Z,1581.00
2023-04-19T06:12:12.964Z,1488.00
2023-04-19T06:13:11.959Z,1338.00
2023-04-19T06:14:11.963Z,1215.00
2023-04-19T06:15:11.953Z,1143.00
2023-04-19T06:16:11.942Z,1099.00
2023-04-19T06:17:11.983Z,1089.00
2023-04-19T06:18:18.752Z,1055.00
2023-04-19T06:19:12.933Z,1056.00
2023-04-19T06:20:11.905Z,962.00
2023-04-19T06:21:12.429Z,961.00
2023-04-19T06:22:11.876Z,1083.00
2023-04-19T06:23:11.883Z,1211.00
2023-04-19T06:24:11.864Z,1238.00
2023-04-19T06:25:11.930Z,1272.00
2023-04-19T06:26:11.852Z,1307.00
2023-04-19T06:27:11.919Z,1354.00
2023-04-19T06:28:11.858Z,1392.00
2023-04-19T06:29:11.886Z,1442.00
2023-04-19T06:30:11.886Z,1470.00
2023-04-19T06:31:11.833Z,1522.00
2023-04-19T06:32:11.831Z,1613.00
2023-04-19T06:33:11.869Z,1672.00
2023-04-19T06:34:11.921Z,1723.00
2023-04-19T06:35:12.031Z,1747.00
2023-04-19T06:36:12.244Z,1748.00
2023-04-19T06:37:12.142Z,1772.00
2023-04-19T06:38:12.128Z,1803.00
2023-04-19T06:39:12.146Z,1796.00
2023-04-19T06:40:12.240Z,1817.00
2023-04-19T06:41:12.241Z,1805.00
2023-04-19T06:42:12.313Z,1781.00
2023-04-19T06:43:12.363Z,1754.00
2023-04-19T06:44:12.429Z,1701.00
2023-04-19T06:45:12.487Z,1548.00
2023-04-19T06:46:12.556Z,1386.00
2023-04-19T06:47:15.498Z,1327.00
2023-04-19T06:48:12.653Z,1329.00
2023-04-19T06:49:12.648Z,1353.00
2023-04-19T06:50:12.609Z,1421.00
2023-04-19T06:51:12.574Z,1503.00
2023-04-19T06:52:12.608Z,1616.00
2023-04-19T06:53:13.345Z,2296.00
2023-04-19T06:54:12.564Z,1909.00
2023-04-19T06:55:12.549Z,1788.00
2023-04-19T06:56:12.551Z,1725.00
2023-04-19T06:57:12.524Z,1580.00
2023-04-19T06:58:12.532Z,1293.00
2023-04-19T06:59:12.574Z,1114.00
2023-04-19T07:00:12.574Z,1001.00
2023-04-19T07:01:12.603Z,832.00
2023-04-19T07:02:12.729Z,748.00
2023-04-19T07:03:12.779Z,690.00
2023-04-19T07:04:12.788Z,653.00
2023-04-19T07:05:12.668Z,650.00
2023-04-19T07:06:12.689Z,670.00
2023-04-19T07:07:12.607Z,749.00
2023-04-19T07:08:12.651Z,776.00
2023-04-19T07:09:12.674Z,828.00
2023-04-19T07:10:12.727Z,908.00
2023-04-19T07:11:12.781Z,969.00
2023-04-19T07:12:12.829Z,997.00
2023-04-19T07:13:12.886Z,1056.00
2023-04-19T07:14:12.898Z,1090.00
2023-04-19T07:15:12.905Z,1124.00
2023-04-19T07:16:12.991Z,1160.00
2023-04-19T07:17:12.948Z,1172.00
2023-04-19T07:18:13.795Z,1217.00
2023-04-19T07:19:12.937Z,1264.00
2023-04-19T07:20:13.360Z,1293.00
2023-04-19T07:21:13.029Z,1305.00
2023-04-19T07:22:14.718Z,1338.00
2023-04-19T07:23:13.146Z,1354.00
2023-04-19T07:24:13.382Z,1388.00
2023-04-19T07:25:13.372Z,1416.00
2023-04-19T07:26:13.353Z,1453.00
2023-04-19T07:27:13.334Z,1479.00
2023-04-19T07:28:13.398Z,1493.00
2023-04-19T07:29:13.487Z,1497.00
2023-04-19T07:30:13.810Z,1526.00
2023-04-19T07:31:13.643Z,1547.00
2023-04-19T07:32:13.660Z,1587.00
2023-04-19T07:33:13.705Z,1617.00
2023-04-19T07:34:14.124Z,1669.00
2023-04-19T07:35:13.805Z,1660.00
2023-04-19T07:36:13.805Z,1669.00
2023-04-19T07:37:13.851Z,1663.00
2023-04-19T07:38:13.936Z,1692.00
2023-04-19T07:39:13.995Z,1695.00
2023-04-19T07:40:14.471Z,1781.00
2023-04-19T07:41:14.248Z,1890.00
2023-04-19T07:42:14.186Z,1832.00
2023-04-19T07:43:14.185Z,1815.00
2023-04-19T07:44:14.495Z,1813.00
2023-04-19T07:45:14.307Z,1809.00
2023-04-19T07:46:14.254Z,1876.00
2023-04-19T07:47:14.188Z,1818.00
2023-04-19T07:48:29.806Z,1702.00
2023-04-19T07:49:14.287Z,1703.00
2023-04-19T07:50:14.316Z,1542.00
2023-04-19T07:51:14.172Z,1472.00
2023-04-19T07:52:14.225Z,1409.00
2023-04-19T07:53:14.164Z,1391.00
2023-04-19T07:54:14.344Z,1285.00
2023-04-19T07:55:14.153Z,1155.00
2023-04-19T07:56:14.302Z,1062.00
2023-04-19T07:57:14.144Z,959.00
2023-04-19T07:58:14.125Z,903.00
2023-04-19T07:59:14.111Z,847.00
2023-04-19T08:00:14.116Z,792.00
2023-04-19T08:01:14.157Z,721.00
2023-04-19T08:02:14.231Z,698.00
2023-04-19T08:03:14.379Z,657.00
2023-04-19T08:04:14.385Z,628.00
2023-04-19T08:05:14.243Z,620.00
2023-04-19T08:06:14.103Z,646.00
2023-04-19T08:07:14.111Z,670.00
2023-04-19T08:08:14.036Z,656.00
2023-04-19T08:09:14.065Z,710.00
2023-04-19T08:10:14.050Z,689.00
2023-04-19T08:11:14.151Z,645.00
2023-04-19T08:12:22.785Z,627.00
2023-04-19T08:13:15.026Z,627.00
2023-04-19T08:14:25.836Z,622.00
2023-04-19T08:18:14.151Z,603.00
2023-04-19T08:19:14.015Z,593.00
2023-04-19T08:20:14.041Z,573.00
2023-04-19T08:21:13.993Z,564.00
2023-04-19T08:22:13.967Z,554.00
2023-04-19T08:23:22.338Z,539.00
2023-04-19T08:24:15.114Z,540.00
2023-04-19T08:25:13.962Z,521.00
2023-04-19T08:26:13.938Z,542.00
2023-04-19T08:27:13.982Z,549.00
2023-04-19T08:28:13.915Z,569.00
2023-04-19T08:29:13.920Z,592.00
2023-04-19T08:30:14.064Z,625.00
2023-04-19T08:31:13.915Z,578.00
2023-04-19T08:32:14.007Z,625.00
2023-04-19T08:33:14.012Z,615.00
2023-04-19T08:34:13.878Z,641.00
2023-04-19T08:35:13.887Z,604.00
2023-04-19T08:36:15.297Z,600.00
2023-04-19T08:37:14.898Z,601.00
2023-04-19T08:38:13.913Z,602.00
2023-04-19T08:40:13.826Z,609.00
2023-04-19T08:41:13.824Z,633.00
2023-04-19T08:43:13.849Z,653.00
2023-04-19T08:44:14.572Z,661.00
2023-04-19T08:46:14.818Z,656.00
2023-04-19T08:47:23.533Z,675.00
2023-04-19T08:48:14.809Z,657.00
2023-04-19T08:49:14.042Z,682.00
2023-04-19T08:51:13.795Z,863.00
2023-04-19T08:52:13.749Z,987.00
2023-04-19T08:53:23.919Z,968.00
2023-04-19T08:54:14.775Z,970.00
2023-04-19T08:55:13.728Z,953.00
2023-04-19T08:56:24.015Z,970.00
2023-04-19T08:57:14.728Z,970.00
2023-04-19T08:58:28.432Z,973.00
2023-04-19T08:59:18.736Z,971.00
2023-04-19T09:00:13.828Z,971.00
2023-04-19T09:01:26.285Z,893.00
2023-04-19T09:02:14.782Z,644.00
2023-04-19T09:03:13.962Z,551.00
2023-04-19T09:05:13.941Z,488.00
2023-04-19T09:06:13.853Z,451.00
2023-04-19T09:07:13.630Z,440.00
2023-04-19T09:08:14.378Z,467.00
2023-04-19T09:09:24.354Z,498.00
2023-04-19T09:10:14.609Z,466.00
2023-04-19T09:11:13.627Z,446.00
2023-04-19T09:12:13.602Z,456.00
2023-04-19T09:13:13.640Z,444.00
2023-04-19T09:14:13.656Z,429.00
2023-04-19T09:15:13.603Z,492.00
2023-04-19T09:16:13.799Z,500.00
2023-04-19T09:17:14.854Z,500.00
2023-04-19T09:18:14.648Z,493.00
2023-04-19T09:19:23.326Z,466.00
2023-04-19T09:20:14.601Z,475.00
2023-04-19T09:21:13.584Z,446.00
2023-04-19T09:22:13.545Z,449.00
2023-04-19T09:23:13.545Z,427.00
2023-04-19T09:24:13.933Z,427.00
2023-04-19T09:25:39.111Z,492.00
2023-04-19T09:26:21.958Z,493.00
2023-04-19T09:27:14.496Z,493.00
2023-04-19T09:28:13.470Z,498.00
2023-04-19T09:29:13.930Z,507.00
2023-04-19T09:30:24.031Z,519.00
2023-04-19T09:31:30.275Z,494.00
2023-04-19T09:32:14.485Z,494.00
2023-04-19T09:33:13.618Z,505.00
2023-04-19T09:34:13.466Z,528.00
2023-04-19T09:35:13.479Z,570.00
2023-04-19T09:36:14.601Z,659.00
2023-04-19T09:37:17.737Z,805.00
2023-04-19T09:38:14.428Z,674.00
2023-04-19T09:39:13.548Z,579.00
2023-04-19T09:40:13.439Z,572.00
2023-04-19T09:41:13.396Z,519.00
2023-04-19T09:42:13.409Z,515.00
2023-04-19T09:46:14.381Z,476.00
2023-04-19T09:47:13.348Z,501.00
2023-04-19T09:48:13.372Z,512.00
2023-04-19T09:49:23.185Z,529.00
2023-04-19T09:50:23.627Z,503.00
2023-04-19T09:51:14.814Z,507.00
2023-04-19T09:52:13.319Z,514.00
2023-04-19T09:53:13.300Z,562.00
2023-04-19T09:54:13.334Z,609.00
2023-04-19T09:55:24.928Z,703.00
2023-04-19T09:56:14.298Z,507.00
2023-04-19T09:57:13.268Z,525.00
2023-04-19T09:58:13.246Z,564.00
2023-04-19T09:59:20.893Z,636.00
2023-04-19T10:00:14.250Z,510.00
2023-04-19T10:01:15.502Z,560.00
2023-04-19T10:02:13.313Z,642.00
2023-04-19T10:03:13.282Z,938.00
2023-04-19T10:04:25.912Z,1006.00
2023-04-19T10:06:31.835Z,509.00
2023-04-19T10:08:13.340Z,507.00
2023-04-19T10:09:13.267Z,525.00
2023-04-19T10:10:20.493Z,562.00
2023-04-19T10:11:14.158Z,506.00
2023-04-19T10:12:32.330Z,533.00
2023-04-19T10:13:20.266Z,510.00
2023-04-19T10:14:14.146Z,511.00
2023-04-19T10:15:13.181Z,559.00
2023-04-19T10:16:19.450Z,652.00
2023-04-19T10:17:14.156Z,516.00
2023-04-19T10:18:13.142Z,571.00
2023-04-19T10:19:13.218Z,674.00
2023-04-19T10:20:13.094Z,1043.00
2023-04-19T10:21:13.427Z,1487.00
2023-04-19T10:22:13.266Z,1571.00
2023-04-19T10:23:13.217Z,1555.00
2023-04-19T10:24:13.266Z,1548.00
2023-04-19T10:25:13.498Z,1530.00
2023-04-19T10:26:13.887Z,1489.00
2023-04-19T10:27:13.419Z,1064.00
2023-04-19T10:28:13.557Z,664.00
2023-04-19T10:29:13.799Z,653.00
2023-04-19T10:30:13.475Z,618.00
2023-04-19T10:31:13.923Z,744.00
2023-04-19T10:32:13.516Z,965.00
2023-04-19T10:33:13.454Z,884.00
2023-04-19T10:34:13.500Z,847.00
2023-04-19T10:35:14.707Z,742.00
2023-04-19T10:36:13.898Z,632.00
2023-04-19T10:37:13.617Z,638.00
2023-04-19T10:38:13.584Z,634.00
2023-04-19T10:39:13.725Z,625.00
2023-04-19T10:40:13.644Z,855.00
2023-04-19T10:41:16.778Z,1013.00
2023-04-19T10:42:13.612Z,1016.00
2023-04-19T10:43:14.177Z,1055.00
2023-04-19T10:44:13.592Z,1125.00
2023-04-19T10:45:13.580Z,1201.00
2023-04-19T10:46:13.677Z,1289.00
2023-04-19T10:47:14.682Z,1345.00
2023-04-19T10:48:13.710Z,1291.00
2023-04-19T10:49:13.915Z,1307.00
2023-04-19T10:50:13.623Z,1184.00
2023-04-19T10:51:13.883Z,1067.00
2023-04-19T10:52:13.564Z,1034.00
2023-04-19T10:53:14.304Z,1011.00
2023-04-19T10:54:13.541Z,1032.00
2023-04-19T10:55:13.525Z,1021.00
2023-04-19T10:56:13.544Z,1108.00
2023-04-19T10:57:13.514Z,1037.00
2023-04-19T10:58:13.575Z,992.00
2023-04-19T10:59:13.575Z,988.00
2023-04-19T11:00:13.481Z,1059.00
2023-04-19T11:01:13.490Z,1013.00
2023-04-19T11:02:13.550Z,1072.00
2023-04-19T11:03:13.632Z,1015.00
2023-04-19T11:04:13.694Z,828.00
2023-04-19T11:05:13.429Z,810.00
2023-04-19T11:06:13.474Z,814.00
2023-04-19T11:07:13.515Z,908.00
2023-04-19T11:08:13.471Z,872.00
2023-04-19T11:09:13.510Z,796.00
2023-04-19T11:10:13.464Z,759.00
2023-04-19T11:11:13.430Z,812.00
2023-04-19T11:12:13.516Z,817.00
2023-04-19T11:13:13.521Z,858.00
2023-04-19T11:14:13.566Z,838.00
2023-04-19T11:15:13.588Z,1012.00
2023-04-19T11:16:13.579Z,1026.00
2023-04-19T11:17:14.020Z,985.00
2023-04-19T11:18:13.610Z,1102.00
2023-04-19T11:19:13.821Z,1143.00
2023-04-19T11:20:13.698Z,1029.00
2023-04-19T11:21:13.703Z,1112.00
2023-04-19T11:22:13.756Z,954.00
2023-04-19T11:23:13.720Z,969.00
2023-04-19T11:24:13.745Z,1030.00
2023-04-19T11:25:13.746Z,1115.00
2023-04-19T11:26:13.758Z,977.00
2023-04-19T11:27:13.756Z,994.00
2023-04-19T11:28:13.750Z,874.00
2023-04-19T11:29:14.033Z,902.00
2023-04-19T11:30:13.829Z,944.00
2023-04-19T11:31:13.837Z,866.00
2023-04-19T11:32:13.829Z,942.00
2023-04-19T11:33:13.821Z,811.00
2023-04-19T11:34:13.952Z,926.00
2023-04-19T11:35:13.867Z,824.00
2023-04-19T11:36:13.880Z,797.00
2023-04-19T11:37:13.952Z,800.00
2023-04-19T11:38:14.577Z,753.00
2023-04-19T11:39:13.933Z,752.00
2023-04-19T11:40:13.986Z,788.00
2023-04-19T11:41:13.956Z,838.00
2023-04-19T11:42:14.079Z,807.00
2023-04-19T11:43:14.005Z,778.00
2023-04-19T11:44:14.183Z,666.00
2023-04-19T11:45:26.120Z,648.00
2023-04-19T11:46:15.142Z,648.00
2023-04-19T11:47:13.981Z,600.00
2023-04-19T11:48:14.049Z,597.00
2023-04-19T11:49:13.970Z,598.00
2023-04-19T11:50:14.019Z,591.00
2023-04-19T11:51:13.983Z,582.00
2023-04-19T11:52:14.046Z,572.00
2023-04-19T11:53:13.975Z,571.00
2023-04-19T11:54:14.114Z,568.00
2023-04-19T11:55:13.973Z,543.00
2023-04-19T11:56:13.948Z,530.00
2023-04-19T11:57:13.972Z,515.00
2023-04-19T11:58:13.948Z,505.00
2023-04-19T11:59:13.928Z,500.00
2023-04-19T12:00:13.894Z,503.00
2023-04-19T12:01:13.881Z,526.00
2023-04-19T12:02:13.940Z,529.00
2023-04-19T12:03:14.106Z,526.00
2023-04-19T12:04:14.107Z,508.00
2023-04-19T12:05:13.971Z,524.00
2023-04-19T12:06:13.893Z,497.00
2023-04-19T12:07:14.073Z,524.00
2023-04-19T12:08:13.966Z,509.00
2023-04-19T12:09:14.011Z,508.00
2023-04-19T12:10:14.079Z,509.00
2023-04-19T12:11:14.044Z,504.00
2023-04-19T12:12:14.075Z,508.00
2023-04-19T12:13:14.125Z,500.00
2023-04-19T12:14:14.360Z,510.00
2023-04-19T12:15:14.178Z,506.00
2023-04-19T12:16:14.333Z,521.00
2023-04-19T12:17:14.275Z,541.00
2023-04-19T12:18:14.450Z,562.00
2023-04-19T12:19:14.520Z,576.00
2023-04-19T12:20:14.325Z,617.00
2023-04-19T12:21:14.337Z,616.00
2023-04-19T12:22:14.352Z,594.00
2023-04-19T12:23:14.418Z,575.00
2023-04-19T12:24:14.477Z,584.00
2023-04-19T12:25:14.422Z,593.00
2023-04-19T12:26:14.469Z,566.00
2023-04-19T12:27:14.506Z,554.00
2023-04-19T12:28:14.643Z,558.00
2023-04-19T12:29:14.898Z,555.00
2023-04-19T12:30:14.564Z,563.00
2023-04-19T12:31:14.624Z,542.00
2023-04-19T12:32:14.689Z,530.00
2023-04-19T12:33:14.709Z,541.00
2023-04-19T12:34:14.709Z,553.00
2023-04-19T12:35:14.700Z,547.00
2023-04-19T12:36:14.743Z,541.00
2023-04-19T12:37:14.812Z,550.00
2023-04-19T12:38:14.858Z,566.00